Terminal Aerodrome Forecast
Issued by NWS Indianapolis, IN

Home | Current Version | Previous Version | Text Only | Print | Product List | Glossary On
Versions: 1 2 3 4 5 6 7 8 9 10 11 12 13 14 15 16 17 18 19 20 21 22 23
000
FTUS43 KIND 220200 AAA
TAFIND
TAF AMD
KIND 220230Z 2203/2306 12007KT P6SM BKN250
     FM221000 12006KT P6SM BKN080
     FM221500 13010KT P6SM BKN020
     FM221800 12010KT P6SM -RA BKN020
     FM230400 13013KT 5SM RA OVC020=

USA.gov is the U.S. government's official web portal to all federal, state and local government web resources and services.